• Join FlightAware (Why Join?)
  • Login
  • US Flag 
04:16AM EST


 

Airport Tracker/Info


-or-


 

Live Flight TrackerFlight Track Log ✈ N7985N ✈ 16-Jun-2013 ✈ KHBZ - KFYE

Flight Track Log - Related Links

Times and Time Zones

All times are in EDT time to prevent confusion due to time zone crossing. See the N7985N flight status page for this flight to view local times or setup timezone preferences in your user account.

Time Position Orientation Groundspeed Altitude Reporting Facility
EDT Latitude Longitude Course Direction KTS MPH feet Rate Location/Type
11:13AM 35.4914 -91.7953 99° East 120 138 4,400  Level Memphis Center
11:14AM 35.4897 -91.7619 94° East 113 130 4,900 300 Climbing Memphis Center
11:15AM 35.4881 -91.7239 93° East 108 124 5,100 60 Climbing Memphis Center
11:16AM 35.4822 -91.6803 99° East 108 124 5,100  Level Memphis Center
11:17AM 35.4806 -91.6419 93° East 108 124 5,100  Level Memphis Center
11:18AM 35.4868 -91.7780 99° East  Level Estimated
11:18AM 35.4767 -91.6039 97° East 108 124 5,200  Level Memphis Center
11:19AM 35.4731 -91.5656 97° East 108 124 5,200  Level Memphis Center
11:20AM 35.4692 -91.5272 97° East 108 124 5,200 -60 Level Memphis Center
11:21AM 35.4633 -91.4839 99° East 108 124 5,100 -120 Descending Memphis Center
11:22AM 35.4553 -91.4428 104° East 118 136 5,000  Descending Memphis Center
11:23AM 35.4536 -91.3994 93° East 129 148 5,100  Climbing Memphis Center
11:24AM 35.4478 -91.3611 101° East 119 137 5,100  Level Memphis Center
11:25AM 35.4417 -91.3256 102° East 119 137 5,100  Level Memphis Center
11:26AM 35.4358 -91.2847 100° East 114 131 5,100  Level Memphis Center
11:27AM 35.4319 -91.2464 97° East 114 131 5,100  Level Memphis Center
11:28AM 35.4281 -91.2106 98° East 114 131 5,100  Level Memphis Center
11:29AM 35.4283 -91.1697 90° East 114 131 5,100  Level Memphis Center
11:30AM 35.4200 -91.1264 103° East 114 131 5,100  Level Memphis Center
11:31AM 35.4142 -91.0883 101° East 114 131 5,100  Level Memphis Center
11:32AM 35.4122 -91.0475 93° East 120 138 5,100  Level Memphis Center
11:33AM 35.4103 -91.0067 93° East 120 138 5,100  Level Memphis Center
11:34AM 35.4003 -90.9633 106° East 120 138 5,100  Level Memphis Center
11:35AM 35.3942 -90.9250 101° East 115 132 5,100  Level Memphis Center
11:36AM 35.3881 -90.8842 100° East 115 132 5,100  Level Memphis Center
11:37AM 35.3839 -90.8461 98° East 115 132 5,100  Level Memphis Center
11:38AM 35.3819 -90.8028 93° East 115 132 5,100 -60 Level Memphis Center
11:39AM 35.3739 -90.7669 105° East 115 132 5,000 -60 Descending Memphis Center
11:40AM 35.3719 -90.7289 94° East 115 132 5,000  Level Memphis Center
11:41AM 35.3658 -90.6906 101° East 115 132 5,100  Climbing Memphis Center
11:42AM 35.3617 -90.6525 98° East 109 125 5,100  Level Memphis Center
11:43AM 35.3597 -90.6192 94° East 109 125 5,100  Level Memphis Center
11:44AM 35.3575 -90.5811 94° East 109 125 5,100  Level Memphis Center
11:45AM 35.3536 -90.5403 97° East 109 125 5,100  Level Memphis Center
11:46AM 35.3472 -90.5022 102° East 104 120 5,100  Level Memphis Center
11:47AM 35.3411 -90.4664 102° East 104 120 5,100  Level Memphis Center
11:48AM 35.3347 -90.4258 101° East 109 125 5,100  Level Memphis Center
11:50AM 35.3167 -90.3333 103° East 116 133 5,100  Level KMEM
11:51AM 35.3167 -90.3000 90° East 113 130 5,100  Level KMEM
11:52AM 35.3167 -90.2667 90° East 113 130 5,100 -60 Level KMEM
11:53AM 35.3167 -90.2167 90° East 113 130 5,000 -60 Descending KMEM
11:54AM 35.3000 -90.1833 121° Southeast 113 130 5,000  Level KMEM
11:55AM 35.3000 -90.1333 90° East 117 135 5,100  Climbing KMEM
11:56AM 35.2833 -90.1000 121° Southeast 109 125 5,100  Level KMEM
11:57AM 35.2833 -90.0667 90° East 111 128 5,100  Level KMEM
11:58AM 35.2833 -90.0167 90° East 122 140 5,200  Climbing KMEM
11:59AM 35.2833 -89.9833 90° East 117 135 5,200 -60 Level KMEM
12:00PM 35.2833 -89.9500 90° East 116 133 5,100 -120 Descending KMEM
12:01PM 35.2667 -89.9000 112° Southeast 122 140 5,000  Descending KMEM
12:02PM 35.2667 -89.8667 90° East 116 133 5,100  Climbing KMEM
12:03PM 35.2667 -89.8333 90° East 117 135 5,100 -120 Level KMEM
12:04PM 35.2667 -89.7833 90° East 117 135 4,900 -420 Descending KMEM
12:05PM 35.2500 -89.7500 121° Southeast 121 139 4,300 -600 Descending KMEM
12:06PM 35.2500 -89.7000 90° East 116 133 3,800 -540 Descending KMEM
12:07PM 35.2500 -89.6667 90° East 116 133 3,300 -360 Descending KMEM
12:08PM 35.2333 -89.6333 121° Southeast 117 135 3,100 -120 Descending KMEM
12:09PM 35.2333 -89.5833 90° East 116 133 3,100 -60 Level KMEM
12:10PM 35.2333 -89.5500 90° East 119 137 3,000  Descending KMEM
12:11PM 35.2333 -89.5167 90° East 118 136 3,100 60 Climbing KMEM